sensor_id;sensor_type;location;lat;lon;timestamp;P1;durP1;ratioP1;P2;durP2;ratioP2
16272;SDS011;8244;50.044;9.006;2023-12-29T00:02:03;3.72;;;2.40;;
16272;SDS011;8244;50.044;9.006;2023-12-29T00:07:06;3.15;;;2.33;;
16272;SDS011;8244;50.044;9.006;2023-12-29T00:12:07;3.20;;;2.40;;
16272;SDS011;8244;50.044;9.006;2023-12-29T00:17:09;4.00;;;2.30;;
16272;SDS011;8244;50.044;9.006;2023-12-29T00:22:13;4.25;;;2.40;;
16272;SDS011;8244;50.044;9.006;2023-12-29T00:27:14;5.35;;;2.65;;
16272;SDS011;8244;50.044;9.006;2023-12-29T00:32:16;3.47;;;2.35;;
16272;SDS011;8244;50.044;9.006;2023-12-29T00:37:19;2.75;;;2.10;;
16272;SDS011;8244;50.044;9.006;2023-12-29T00:42:21;3.03;;;2.47;;
16272;SDS011;8244;50.044;9.006;2023-12-29T00:47:24;3.22;;;2.40;;
16272;SDS011;8244;50.044;9.006;2023-12-29T00:52:27;3.17;;;2.40;;
16272;SDS011;8244;50.044;9.006;2023-12-29T00:57:28;3.88;;;2.50;;
16272;SDS011;8244;50.044;9.006;2023-12-29T01:02:30;6.03;;;2.65;;
16272;SDS011;8244;50.044;9.006;2023-12-29T01:07:33;4.30;;;2.50;;
16272;SDS011;8244;50.044;9.006;2023-12-29T01:12:35;4.80;;;2.58;;
16272;SDS011;8244;50.044;9.006;2023-12-29T01:17:36;3.92;;;2.15;;
16272;SDS011;8244;50.044;9.006;2023-12-29T01:22:39;4.32;;;2.60;;
16272;SDS011;8244;50.044;9.006;2023-12-29T01:27:41;5.28;;;2.67;;
16272;SDS011;8244;50.044;9.006;2023-12-29T01:32:43;6.05;;;2.60;;
16272;SDS011;8244;50.044;9.006;2023-12-29T01:37:46;8.10;;;3.63;;
16272;SDS011;8244;50.044;9.006;2023-12-29T01:42:48;3.53;;;2.25;;
16272;SDS011;8244;50.044;9.006;2023-12-29T01:47:49;3.97;;;2.60;;
16272;SDS011;8244;50.044;9.006;2023-12-29T01:52:53;4.82;;;2.55;;
16272;SDS011;8244;50.044;9.006;2023-12-29T01:57:57;4.80;;;2.42;;
16272;SDS011;8244;50.044;9.006;2023-12-29T02:02:59;4.63;;;2.15;;
16272;SDS011;8244;50.044;9.006;2023-12-29T02:08:02;3.83;;;2.20;;
16272;SDS011;8244;50.044;9.006;2023-12-29T02:13:04;3.25;;;2.13;;
16272;SDS011;8244;50.044;9.006;2023-12-29T02:18:07;3.40;;;2.05;;
16272;SDS011;8244;50.044;9.006;2023-12-29T02:23:16;5.63;;;2.65;;
16272;SDS011;8244;50.044;9.006;2023-12-29T02:28:20;4.82;;;2.05;;
16272;SDS011;8244;50.044;9.006;2023-12-29T02:33:26;10.02;;;3.13;;
16272;SDS011;8244;50.044;9.006;2023-12-29T02:38:29;5.15;;;2.80;;
16272;SDS011;8244;50.044;9.006;2023-12-29T02:43:32;3.42;;;2.40;;
16272;SDS011;8244;50.044;9.006;2023-12-29T02:48:35;4.90;;;2.63;;
16272;SDS011;8244;50.044;9.006;2023-12-29T02:53:36;5.38;;;2.45;;
16272;SDS011;8244;50.044;9.006;2023-12-29T02:58:40;4.18;;;2.20;;
16272;SDS011;8244;50.044;9.006;2023-12-29T03:03:41;5.38;;;2.63;;
16272;SDS011;8244;50.044;9.006;2023-12-29T03:08:43;3.78;;;2.30;;
16272;SDS011;8244;50.044;9.006;2023-12-29T03:13:46;3.10;;;2.13;;
16272;SDS011;8244;50.044;9.006;2023-12-29T03:18:48;5.65;;;2.50;;
16272;SDS011;8244;50.044;9.006;2023-12-29T03:23:50;6.03;;;2.53;;
16272;SDS011;8244;50.044;9.006;2023-12-29T03:28:53;4.90;;;2.60;;
16272;SDS011;8244;50.044;9.006;2023-12-29T03:33:55;4.90;;;2.67;;
16272;SDS011;8244;50.044;9.006;2023-12-29T03:38:57;3.08;;;2.50;;
16272;SDS011;8244;50.044;9.006;2023-12-29T03:44:00;3.95;;;2.40;;
16272;SDS011;8244;50.044;9.006;2023-12-29T03:49:03;3.65;;;2.15;;
16272;SDS011;8244;50.044;9.006;2023-12-29T03:54:05;6.07;;;2.30;;
16272;SDS011;8244;50.044;9.006;2023-12-29T03:59:08;4.13;;;2.10;;
16272;SDS011;8244;50.044;9.006;2023-12-29T04:04:09;3.28;;;2.10;;
16272;SDS011;8244;50.044;9.006;2023-12-29T04:09:11;4.40;;;2.28;;
16272;SDS011;8244;50.044;9.006;2023-12-29T04:14:14;4.40;;;2.20;;
16272;SDS011;8244;50.044;9.006;2023-12-29T04:19:16;5.65;;;2.10;;
16272;SDS011;8244;50.044;9.006;2023-12-29T04:24:18;4.30;;;2.05;;
16272;SDS011;8244;50.044;9.006;2023-12-29T04:29:21;5.30;;;2.13;;
16272;SDS011;8244;50.044;9.006;2023-12-29T04:34:22;4.72;;;2.13;;
16272;SDS011;8244;50.044;9.006;2023-12-29T04:39:24;2.97;;;2.10;;
16272;SDS011;8244;50.044;9.006;2023-12-29T04:44:27;4.50;;;1.95;;
16272;SDS011;8244;50.044;9.006;2023-12-29T04:49:29;4.07;;;2.10;;
16272;SDS011;8244;50.044;9.006;2023-12-29T04:54:30;4.97;;;2.00;;
16272;SDS011;8244;50.044;9.006;2023-12-29T04:59:33;3.97;;;1.80;;
16272;SDS011;8244;50.044;9.006;2023-12-29T05:04:35;2.28;;;1.90;;
16272;SDS011;8244;50.044;9.006;2023-12-29T05:09:38;5.78;;;1.95;;
16272;SDS011;8244;50.044;9.006;2023-12-29T05:14:41;3.58;;;1.80;;
16272;SDS011;8244;50.044;9.006;2023-12-29T05:19:42;3.67;;;2.03;;
16272;SDS011;8244;50.044;9.006;2023-12-29T05:24:44;3.45;;;1.80;;
16272;SDS011;8244;50.044;9.006;2023-12-29T05:29:47;3.20;;;1.92;;
16272;SDS011;8244;50.044;9.006;2023-12-29T05:34:49;2.90;;;2.00;;
16272;SDS011;8244;50.044;9.006;2023-12-29T05:39:50;5.07;;;2.22;;
16272;SDS011;8244;50.044;9.006;2023-12-29T05:44:53;4.00;;;2.05;;
16272;SDS011;8244;50.044;9.006;2023-12-29T05:49:55;3.95;;;2.10;;
16272;SDS011;8244;50.044;9.006;2023-12-29T05:54:58;3.92;;;1.80;;
16272;SDS011;8244;50.044;9.006;2023-12-29T06:00:01;5.63;;;2.03;;
16272;SDS011;8244;50.044;9.006;2023-12-29T06:05:04;2.20;;;1.85;;
16272;SDS011;8244;50.044;9.006;2023-12-29T06:10:07;3.33;;;1.70;;
16272;SDS011;8244;50.044;9.006;2023-12-29T06:15:12;2.20;;;1.90;;
16272;SDS011;8244;50.044;9.006;2023-12-29T06:20:13;3.65;;;2.10;;
16272;SDS011;8244;50.044;9.006;2023-12-29T06:25:15;3.08;;;2.00;;
16272;SDS011;8244;50.044;9.006;2023-12-29T06:30:18;2.95;;;1.83;;
16272;SDS011;8244;50.044;9.006;2023-12-29T06:35:20;4.25;;;2.28;;
16272;SDS011;8244;50.044;9.006;2023-12-29T06:40:23;2.75;;;2.00;;
16272;SDS011;8244;50.044;9.006;2023-12-29T06:45:26;2.53;;;1.80;;
16272;SDS011;8244;50.044;9.006;2023-12-29T06:50:27;4.72;;;1.90;;
16272;SDS011;8244;50.044;9.006;2023-12-29T06:55:30;3.95;;;1.90;;
16272;SDS011;8244;50.044;9.006;2023-12-29T07:00:33;3.42;;;1.90;;
16272;SDS011;8244;50.044;9.006;2023-12-29T07:05:34;2.10;;;1.80;;
16272;SDS011;8244;50.044;9.006;2023-12-29T07:10:36;4.70;;;2.08;;
16272;SDS011;8244;50.044;9.006;2023-12-29T07:15:39;2.72;;;1.90;;
16272;SDS011;8244;50.044;9.006;2023-12-29T07:20:42;3.58;;;2.05;;
16272;SDS011;8244;50.044;9.006;2023-12-29T07:25:44;6.38;;;2.47;;
16272;SDS011;8244;50.044;9.006;2023-12-29T07:30:47;3.17;;;1.95;;
16272;SDS011;8244;50.044;9.006;2023-12-29T07:35:48;4.05;;;1.83;;
16272;SDS011;8244;50.044;9.006;2023-12-29T07:40:50;3.10;;;2.20;;
16272;SDS011;8244;50.044;9.006;2023-12-29T07:45:53;3.72;;;1.95;;
16272;SDS011;8244;50.044;9.006;2023-12-29T07:50:55;5.10;;;2.00;;
16272;SDS011;8244;50.044;9.006;2023-12-29T07:56:05;4.25;;;1.80;;
16272;SDS011;8244;50.044;9.006;2023-12-29T08:01:09;3.65;;;1.85;;
16272;SDS011;8244;50.044;9.006;2023-12-29T08:06:11;2.30;;;1.65;;
16272;SDS011;8244;50.044;9.006;2023-12-29T08:11:13;2.97;;;1.88;;
16272;SDS011;8244;50.044;9.006;2023-12-29T08:16:17;1.90;;;1.45;;
16272;SDS011;8244;50.044;9.006;2023-12-29T08:21:19;3.67;;;1.52;;
16272;SDS011;8244;50.044;9.006;2023-12-29T08:26:21;5.55;;;1.90;;
16272;SDS011;8244;50.044;9.006;2023-12-29T08:31:24;5.50;;;1.80;;
16272;SDS011;8244;50.044;9.006;2023-12-29T08:36:27;3.63;;;1.50;;
16272;SDS011;8244;50.044;9.006;2023-12-29T08:41:29;4.38;;;1.65;;
16272;SDS011;8244;50.044;9.006;2023-12-29T08:46:32;3.00;;;1.42;;
16272;SDS011;8244;50.044;9.006;2023-12-29T08:51:33;2.60;;;1.45;;
16272;SDS011;8244;50.044;9.006;2023-12-29T08:56:35;5.05;;;1.90;;
16272;SDS011;8244;50.044;9.006;2023-12-29T09:01:38;2.33;;;1.65;;
16272;SDS011;8244;50.044;9.006;2023-12-29T09:06:40;4.97;;;1.60;;
16272;SDS011;8244;50.044;9.006;2023-12-29T09:11:41;4.40;;;1.58;;
16272;SDS011;8244;50.044;9.006;2023-12-29T09:16:45;4.25;;;1.65;;
16272;SDS011;8244;50.044;9.006;2023-12-29T09:21:47;4.28;;;1.50;;
16272;SDS011;8244;50.044;9.006;2023-12-29T09:26:50;4.55;;;1.63;;
16272;SDS011;8244;50.044;9.006;2023-12-29T09:31:53;5.38;;;1.30;;
16272;SDS011;8244;50.044;9.006;2023-12-29T09:36:55;2.78;;;1.48;;
16272;SDS011;8244;50.044;9.006;2023-12-29T09:41:57;7.88;;;2.03;;
16272;SDS011;8244;50.044;9.006;2023-12-29T09:47:03;4.13;;;1.38;;
16272;SDS011;8244;50.044;9.006;2023-12-29T09:52:07;4.25;;;2.13;;
16272;SDS011;8244;50.044;9.006;2023-12-29T09:57:12;4.03;;;1.33;;
16272;SDS011;8244;50.044;9.006;2023-12-29T10:02:15;4.57;;;1.70;;
16272;SDS011;8244;50.044;9.006;2023-12-29T10:07:18;8.52;;;2.85;;
16272;SDS011;8244;50.044;9.006;2023-12-29T10:12:24;4.40;;;1.90;;
16272;SDS011;8244;50.044;9.006;2023-12-29T10:17:31;5.00;;;2.13;;
16272;SDS011;8244;50.044;9.006;2023-12-29T10:22:45;4.63;;;1.80;;
16272;SDS011;8244;50.044;9.006;2023-12-29T10:27:51;5.63;;;2.00;;
16272;SDS011;8244;50.044;9.006;2023-12-29T10:32:55;4.13;;;1.50;;
16272;SDS011;8244;50.044;9.006;2023-12-29T10:38:07;7.05;;;1.90;;
16272;SDS011;8244;50.044;9.006;2023-12-29T10:43:10;3.83;;;1.73;;
16272;SDS011;8244;50.044;9.006;2023-12-29T10:48:13;3.90;;;1.85;;
16272;SDS011;8244;50.044;9.006;2023-12-29T10:53:24;2.33;;;1.20;;
16272;SDS011;8244;50.044;9.006;2023-12-29T10:58:25;4.88;;;1.60;;
16272;SDS011;8244;50.044;9.006;2023-12-29T11:03:30;5.10;;;1.77;;
16272;SDS011;8244;50.044;9.006;2023-12-29T11:08:33;4.70;;;1.50;;
16272;SDS011;8244;50.044;9.006;2023-12-29T11:13:36;3.20;;;1.42;;
16272;SDS011;8244;50.044;9.006;2023-12-29T11:18:40;3.42;;;1.58;;
16272;SDS011;8244;50.044;9.006;2023-12-29T11:23:44;4.32;;;1.50;;
16272;SDS011;8244;50.044;9.006;2023-12-29T11:28:46;3.88;;;1.50;;
16272;SDS011;8244;50.044;9.006;2023-12-29T11:33:50;2.90;;;1.52;;
16272;SDS011;8244;50.044;9.006;2023-12-29T11:38:59;2.92;;;1.60;;
16272;SDS011;8244;50.044;9.006;2023-12-29T11:44:04;2.08;;;1.40;;
16272;SDS011;8244;50.044;9.006;2023-12-29T11:49:07;2.90;;;1.60;;
16272;SDS011;8244;50.044;9.006;2023-12-29T11:54:10;2.47;;;1.50;;
16272;SDS011;8244;50.044;9.006;2023-12-29T11:59:22;3.25;;;1.50;;
16272;SDS011;8244;50.044;9.006;2023-12-29T12:04:36;5.85;;;2.30;;
16272;SDS011;8244;50.044;9.006;2023-12-29T12:09:40;6.05;;;2.00;;
16272;SDS011;8244;50.044;9.006;2023-12-29T12:14:46;4.20;;;1.70;;
16272;SDS011;8244;50.044;9.006;2023-12-29T12:19:53;3.33;;;1.95;;
16272;SDS011;8244;50.044;9.006;2023-12-29T12:24:58;6.10;;;2.20;;
16272;SDS011;8244;50.044;9.006;2023-12-29T12:30:01;5.68;;;2.30;;
16272;SDS011;8244;50.044;9.006;2023-12-29T12:35:05;6.13;;;1.80;;
16272;SDS011;8244;50.044;9.006;2023-12-29T12:40:24;3.65;;;1.20;;
16272;SDS011;8244;50.044;9.006;2023-12-29T12:45:27;3.22;;;1.60;;
16272;SDS011;8244;50.044;9.006;2023-12-29T12:50:30;3.28;;;1.40;;
16272;SDS011;8244;50.044;9.006;2023-12-29T12:55:32;5.72;;;1.70;;
16272;SDS011;8244;50.044;9.006;2023-12-29T13:00:35;3.78;;;1.90;;
16272;SDS011;8244;50.044;9.006;2023-12-29T13:05:39;4.55;;;1.70;;
16272;SDS011;8244;50.044;9.006;2023-12-29T13:10:42;5.00;;;1.70;;
16272;SDS011;8244;50.044;9.006;2023-12-29T13:15:45;3.00;;;1.40;;
16272;SDS011;8244;50.044;9.006;2023-12-29T13:20:49;3.47;;;1.40;;
16272;SDS011;8244;50.044;9.006;2023-12-29T13:25:51;3.78;;;1.60;;
16272;SDS011;8244;50.044;9.006;2023-12-29T13:30:56;3.10;;;1.50;;
16272;SDS011;8244;50.044;9.006;2023-12-29T13:36:04;3.53;;;1.58;;
16272;SDS011;8244;50.044;9.006;2023-12-29T13:41:09;4.93;;;1.90;;
16272;SDS011;8244;50.044;9.006;2023-12-29T13:46:13;4.15;;;1.42;;
16272;SDS011;8244;50.044;9.006;2023-12-29T13:51:19;4.97;;;1.70;;
16272;SDS011;8244;50.044;9.006;2023-12-29T13:56:24;5.43;;;1.60;;
16272;SDS011;8244;50.044;9.006;2023-12-29T14:01:25;6.63;;;2.70;;
16272;SDS011;8244;50.044;9.006;2023-12-29T14:06:29;4.00;;;2.08;;
16272;SDS011;8244;50.044;9.006;2023-12-29T14:11:42;3.45;;;1.80;;
16272;SDS011;8244;50.044;9.006;2023-12-29T14:16:45;3.25;;;1.50;;
16272;SDS011;8244;50.044;9.006;2023-12-29T14:21:49;3.65;;;1.90;;
16272;SDS011;8244;50.044;9.006;2023-12-29T14:26:54;3.38;;;1.70;;
16272;SDS011;8244;50.044;9.006;2023-12-29T14:31:58;2.10;;;1.20;;
16272;SDS011;8244;50.044;9.006;2023-12-29T14:37:01;4.90;;;1.30;;
16272;SDS011;8244;50.044;9.006;2023-12-29T14:42:03;2.70;;;1.10;;
16272;SDS011;8244;50.044;9.006;2023-12-29T14:47:05;2.72;;;1.10;;
16272;SDS011;8244;50.044;9.006;2023-12-29T14:52:09;3.58;;;1.30;;
16272;SDS011;8244;50.044;9.006;2023-12-29T14:57:10;2.80;;;1.63;;
16272;SDS011;8244;50.044;9.006;2023-12-29T15:02:12;4.25;;;1.50;;
16272;SDS011;8244;50.044;9.006;2023-12-29T15:07:15;3.72;;;1.15;;
16272;SDS011;8244;50.044;9.006;2023-12-29T15:12:18;1.38;;;1.05;;
16272;SDS011;8244;50.044;9.006;2023-12-29T15:17:19;1.88;;;1.20;;
16272;SDS011;8244;50.044;9.006;2023-12-29T15:22:22;4.10;;;1.30;;
16272;SDS011;8244;50.044;9.006;2023-12-29T15:27:26;1.35;;;1.10;;
16272;SDS011;8244;50.044;9.006;2023-12-29T15:32:27;1.13;;;1.02;;
16272;SDS011;8244;50.044;9.006;2023-12-29T15:37:30;1.48;;;1.02;;
16272;SDS011;8244;50.044;9.006;2023-12-29T15:42:32;2.80;;;1.25;;
16272;SDS011;8244;50.044;9.006;2023-12-29T15:47:34;4.72;;;1.40;;
16272;SDS011;8244;50.044;9.006;2023-12-29T15:52:37;2.45;;;1.80;;
16272;SDS011;8244;50.044;9.006;2023-12-29T15:57:38;5.47;;;1.52;;
16272;SDS011;8244;50.044;9.006;2023-12-29T16:02:40;5.25;;;1.90;;
16272;SDS011;8244;50.044;9.006;2023-12-29T16:07:43;4.40;;;1.73;;
16272;SDS011;8244;50.044;9.006;2023-12-29T16:12:45;5.10;;;1.80;;
16272;SDS011;8244;50.044;9.006;2023-12-29T16:17:46;10.60;;;3.00;;
16272;SDS011;8244;50.044;9.006;2023-12-29T16:22:49;9.98;;;3.50;;
16272;SDS011;8244;50.044;9.006;2023-12-29T16:27:52;6.03;;;2.30;;
16272;SDS011;8244;50.044;9.006;2023-12-29T16:32:53;4.28;;;2.08;;
16272;SDS011;8244;50.044;9.006;2023-12-29T16:37:56;5.07;;;2.08;;
16272;SDS011;8244;50.044;9.006;2023-12-29T16:42:58;4.95;;;2.00;;
16272;SDS011;8244;50.044;9.006;2023-12-29T16:47:59;4.90;;;1.52;;
16272;SDS011;8244;50.044;9.006;2023-12-29T16:53:04;6.07;;;1.70;;
16272;SDS011;8244;50.044;9.006;2023-12-29T16:58:05;4.05;;;1.98;;
16272;SDS011;8244;50.044;9.006;2023-12-29T17:03:07;3.63;;;1.52;;
16272;SDS011;8244;50.044;9.006;2023-12-29T17:08:10;4.35;;;2.25;;
16272;SDS011;8244;50.044;9.006;2023-12-29T17:13:12;4.47;;;1.77;;
16272;SDS011;8244;50.044;9.006;2023-12-29T17:18:13;9.23;;;2.20;;
16272;SDS011;8244;50.044;9.006;2023-12-29T17:23:16;5.03;;;2.22;;
16272;SDS011;8244;50.044;9.006;2023-12-29T17:28:18;4.55;;;1.90;;
16272;SDS011;8244;50.044;9.006;2023-12-29T17:33:20;3.72;;;1.90;;
16272;SDS011;8244;50.044;9.006;2023-12-29T17:38:23;6.03;;;1.85;;
16272;SDS011;8244;50.044;9.006;2023-12-29T17:43:24;3.72;;;1.60;;
16272;SDS011;8244;50.044;9.006;2023-12-29T17:48:26;4.97;;;1.73;;
16272;SDS011;8244;50.044;9.006;2023-12-29T17:53:29;4.78;;;1.70;;
16272;SDS011;8244;50.044;9.006;2023-12-29T17:58:31;3.90;;;1.73;;
16272;SDS011;8244;50.044;9.006;2023-12-29T18:03:32;4.00;;;1.73;;
16272;SDS011;8244;50.044;9.006;2023-12-29T18:08:35;2.85;;;2.00;;
16272;SDS011;8244;50.044;9.006;2023-12-29T18:13:37;3.80;;;1.85;;
16272;SDS011;8244;50.044;9.006;2023-12-29T18:18:39;3.42;;;1.60;;
16272;SDS011;8244;50.044;9.006;2023-12-29T18:23:44;3.95;;;1.75;;
16272;SDS011;8244;50.044;9.006;2023-12-29T18:28:46;4.50;;;2.00;;
16272;SDS011;8244;50.044;9.006;2023-12-29T18:33:47;3.80;;;1.80;;
16272;SDS011;8244;50.044;9.006;2023-12-29T18:38:52;3.97;;;1.45;;
16272;SDS011;8244;50.044;9.006;2023-12-29T18:43:53;5.72;;;1.88;;
16272;SDS011;8244;50.044;9.006;2023-12-29T18:48:55;3.00;;;1.73;;
16272;SDS011;8244;50.044;9.006;2023-12-29T18:53:58;6.60;;;1.98;;
16272;SDS011;8244;50.044;9.006;2023-12-29T18:58:59;7.22;;;2.08;;
16272;SDS011;8244;50.044;9.006;2023-12-29T19:04:01;4.80;;;2.50;;
16272;SDS011;8244;50.044;9.006;2023-12-29T19:09:04;3.60;;;1.52;;
16272;SDS011;8244;50.044;9.006;2023-12-29T19:14:07;4.20;;;1.65;;
16272;SDS011;8244;50.044;9.006;2023-12-29T19:19:09;2.33;;;1.45;;
16272;SDS011;8244;50.044;9.006;2023-12-29T19:24:12;5.30;;;1.80;;
16272;SDS011;8244;50.044;9.006;2023-12-29T19:29:14;3.88;;;1.50;;
16272;SDS011;8244;50.044;9.006;2023-12-29T19:34:15;4.60;;;1.80;;
16272;SDS011;8244;50.044;9.006;2023-12-29T19:39:20;2.58;;;1.60;;
16272;SDS011;8244;50.044;9.006;2023-12-29T19:44:21;3.53;;;1.85;;
16272;SDS011;8244;50.044;9.006;2023-12-29T19:49:23;3.90;;;1.77;;
16272;SDS011;8244;50.044;9.006;2023-12-29T19:54:26;4.05;;;1.48;;
16272;SDS011;8244;50.044;9.006;2023-12-29T19:59:28;4.50;;;1.80;;
16272;SDS011;8244;50.044;9.006;2023-12-29T20:04:30;4.88;;;1.50;;
16272;SDS011;8244;50.044;9.006;2023-12-29T20:09:33;5.40;;;1.70;;
16272;SDS011;8244;50.044;9.006;2023-12-29T20:14:35;3.78;;;1.75;;
16272;SDS011;8244;50.044;9.006;2023-12-29T20:19:37;3.15;;;1.80;;
16272;SDS011;8244;50.044;9.006;2023-12-29T20:24:42;10.98;;;1.98;;
16272;SDS011;8244;50.044;9.006;2023-12-29T20:29:44;4.15;;;1.63;;
16272;SDS011;8244;50.044;9.006;2023-12-29T20:34:45;3.78;;;1.50;;
16272;SDS011;8244;50.044;9.006;2023-12-29T20:39:48;4.28;;;1.60;;
16272;SDS011;8244;50.044;9.006;2023-12-29T20:44:50;3.22;;;1.40;;
16272;SDS011;8244;50.044;9.006;2023-12-29T20:49:52;1.45;;;1.10;;
16272;SDS011;8244;50.044;9.006;2023-12-29T20:54:56;2.95;;;1.40;;
16272;SDS011;8244;50.044;9.006;2023-12-29T20:59:58;4.32;;;1.35;;
16272;SDS011;8244;50.044;9.006;2023-12-29T21:05:00;9.40;;;2.40;;
16272;SDS011;8244;50.044;9.006;2023-12-29T21:10:07;5.70;;;1.70;;
16272;SDS011;8244;50.044;9.006;2023-12-29T21:15:10;3.65;;;1.60;;
16272;SDS011;8244;50.044;9.006;2023-12-29T21:20:12;4.30;;;1.42;;
16272;SDS011;8244;50.044;9.006;2023-12-29T21:25:15;4.55;;;1.48;;
16272;SDS011;8244;50.044;9.006;2023-12-29T21:30:16;3.13;;;1.50;;
16272;SDS011;8244;50.044;9.006;2023-12-29T21:35:18;6.22;;;1.55;;
16272;SDS011;8244;50.044;9.006;2023-12-29T21:40:21;5.03;;;1.60;;
16272;SDS011;8244;50.044;9.006;2023-12-29T21:45:23;2.95;;;1.25;;
16272;SDS011;8244;50.044;9.006;2023-12-29T21:50:24;4.25;;;1.30;;
16272;SDS011;8244;50.044;9.006;2023-12-29T21:55:27;3.28;;;1.45;;
16272;SDS011;8244;50.044;9.006;2023-12-29T22:00:29;5.70;;;1.45;;
16272;SDS011;8244;50.044;9.006;2023-12-29T22:05:31;6.18;;;1.52;;
16272;SDS011;8244;50.044;9.006;2023-12-29T22:10:34;2.90;;;1.27;;
16272;SDS011;8244;50.044;9.006;2023-12-29T22:15:36;3.70;;;1.50;;
16272;SDS011;8244;50.044;9.006;2023-12-29T22:20:37;3.97;;;1.50;;
16272;SDS011;8244;50.044;9.006;2023-12-29T22:25:40;6.45;;;1.48;;
16272;SDS011;8244;50.044;9.006;2023-12-29T22:30:42;3.42;;;1.40;;
16272;SDS011;8244;50.044;9.006;2023-12-29T22:35:45;6.43;;;1.50;;
16272;SDS011;8244;50.044;9.006;2023-12-29T22:40:48;4.20;;;1.58;;
16272;SDS011;8244;50.044;9.006;2023-12-29T22:45:50;4.45;;;1.45;;
16272;SDS011;8244;50.044;9.006;2023-12-29T22:50:53;3.88;;;1.45;;
16272;SDS011;8244;50.044;9.006;2023-12-29T22:55:56;4.25;;;1.75;;
16272;SDS011;8244;50.044;9.006;2023-12-29T23:00:58;3.45;;;1.52;;
16272;SDS011;8244;50.044;9.006;2023-12-29T23:06:00;3.05;;;1.40;;
16272;SDS011;8244;50.044;9.006;2023-12-29T23:11:03;2.90;;;1.30;;
16272;SDS011;8244;50.044;9.006;2023-12-29T23:16:05;4.60;;;1.50;;
16272;SDS011;8244;50.044;9.006;2023-12-29T23:21:11;5.78;;;1.35;;
16272;SDS011;8244;50.044;9.006;2023-12-29T23:26:14;4.03;;;1.10;;
16272;SDS011;8244;50.044;9.006;2023-12-29T23:31:16;3.20;;;1.40;;
16272;SDS011;8244;50.044;9.006;2023-12-29T23:36:18;3.30;;;1.20;;
16272;SDS011;8244;50.044;9.006;2023-12-29T23:41:21;3.58;;;1.50;;
16272;SDS011;8244;50.044;9.006;2023-12-29T23:46:22;3.08;;;1.48;;
16272;SDS011;8244;50.044;9.006;2023-12-29T23:51:25;5.22;;;1.65;;
16272;SDS011;8244;50.044;9.006;2023-12-29T23:56:28;6.93;;;2.30;;
